createdAt,value
2022-08-20T00:01:06.040Z,98735.91
2022-08-20T00:03:36.305Z,98727.13
2022-08-20T00:06:13.713Z,98731.50
2022-08-20T00:08:42.111Z,98743.03
2022-08-20T00:11:11.249Z,98716.84
2022-08-20T00:13:43.586Z,98722.50
2022-08-20T00:16:11.298Z,98731.00
2022-08-20T00:18:39.168Z,98734.56
2022-08-20T00:21:18.768Z,98730.22
2022-08-20T00:23:50.300Z,98731.91
2022-08-20T00:26:17.856Z,98723.97
2022-08-20T00:28:44.655Z,98702.28
2022-08-20T00:31:14.093Z,98714.19
2022-08-20T00:33:40.927Z,98715.88
2022-08-20T00:36:10.987Z,98708.38
2022-08-20T00:38:40.551Z,98707.28
2022-08-20T00:41:10.310Z,98711.44
2022-08-20T00:43:37.011Z,98720.66
2022-08-20T00:46:18.812Z,98702.47
2022-08-20T00:48:50.207Z,98713.31
2022-08-20T00:51:34.867Z,98706.66
2022-08-20T00:54:14.162Z,98709.81
2022-08-20T00:56:43.950Z,98710.44
2022-08-20T00:59:15.359Z,98716.75
2022-08-20T01:01:55.131Z,98716.56
2022-08-20T01:04:25.259Z,98717.41
2022-08-20T01:06:52.184Z,98711.75
2022-08-20T01:09:50.244Z,98714.69
2022-08-20T01:12:07.909Z,98726.16
2022-08-20T01:14:34.780Z,98734.28
2022-08-20T01:17:06.380Z,98730.53
2022-08-20T01:19:38.319Z,98722.16
2022-08-20T01:22:26.849Z,98721.94
2022-08-20T01:25:05.321Z,98742.66
2022-08-20T01:27:33.684Z,98731.78
2022-08-20T01:30:10.462Z,98719.81
2022-08-20T01:32:37.267Z,98712.72
2022-08-20T01:35:05.843Z,98688.44
2022-08-20T01:37:32.759Z,98715.19
2022-08-20T01:39:59.716Z,98716.03
2022-08-20T01:42:59.176Z,98714.56
2022-08-20T01:45:28.315Z,98719.78
2022-08-20T01:47:58.241Z,98711.00
2022-08-20T01:50:29.359Z,98704.31
2022-08-20T01:53:04.671Z,98703.69
2022-08-20T01:55:32.649Z,98708.94
2022-08-20T01:58:01.392Z,98699.34
2022-08-20T02:00:28.630Z,98700.44
2022-08-20T02:02:55.420Z,98690.22
2022-08-20T02:05:22.850Z,98684.56
2022-08-20T02:07:50.101Z,98676.84
2022-08-20T02:10:18.610Z,98690.94
2022-08-20T02:12:45.536Z,98686.97
2022-08-20T02:15:13.486Z,98692.38
2022-08-20T02:17:42.001Z,98694.44
2022-08-20T02:20:28.860Z,98696.72
2022-08-20T02:22:58.915Z,98678.16
2022-08-20T02:25:28.474Z,98691.56
2022-08-20T02:27:57.545Z,98695.13
2022-08-20T02:30:28.720Z,98686.53
2022-08-20T02:32:57.928Z,98698.03
2022-08-20T02:35:25.834Z,98686.75
2022-08-20T02:37:53.708Z,98692.00
2022-08-20T02:40:30.458Z,98681.72
2022-08-20T02:42:58.460Z,98695.75
2022-08-20T02:45:25.670Z,98685.94
2022-08-20T02:47:57.155Z,98685.47
2022-08-20T02:50:25.621Z,98682.13
2022-08-20T02:52:54.202Z,98687.59
2022-08-20T02:55:27.220Z,98685.50
2022-08-20T02:58:00.031Z,98675.28
2022-08-20T03:00:37.869Z,98672.13
2022-08-20T03:03:07.070Z,98680.50
2022-08-20T03:05:34.639Z,98679.69
2022-08-20T03:08:01.498Z,98678.63
2022-08-20T03:10:32.350Z,98687.41
2022-08-20T03:13:01.697Z,98682.59
2022-08-20T03:15:33.850Z,98676.75
2022-08-20T03:18:01.201Z,98680.09
2022-08-20T03:20:28.985Z,98677.38
2022-08-20T03:22:56.230Z,98686.16
2022-08-20T03:25:23.547Z,98678.44
2022-08-20T03:27:54.316Z,98673.63
2022-08-20T03:30:23.865Z,98683.66
2022-08-20T03:32:51.067Z,98664.66
2022-08-20T03:35:19.889Z,98667.78
2022-08-20T03:37:48.366Z,98663.41
2022-08-20T03:40:19.711Z,98651.91
2022-08-20T03:42:46.541Z,98665.69
2022-08-20T03:45:18.414Z,98662.34
2022-08-20T03:47:47.287Z,98678.63
2022-08-20T03:50:14.636Z,98687.00
2022-08-20T03:52:50.541Z,98677.81
2022-08-20T03:55:17.650Z,98659.84
2022-08-20T03:57:46.962Z,98685.97
2022-08-20T04:00:15.510Z,98689.94
2022-08-20T04:02:42.280Z,98684.06
2022-08-20T04:05:10.318Z,98692.25
2022-08-20T04:07:38.206Z,98696.19
2022-08-20T04:10:10.099Z,98685.13
2022-08-20T04:12:41.986Z,98703.53
2022-08-20T04:15:20.242Z,98694.75
2022-08-20T04:17:50.494Z,98681.75
2022-08-20T04:20:23.088Z,98710.41
2022-08-20T04:22:58.712Z,98704.34
2022-08-20T04:25:29.621Z,98694.94
2022-08-20T04:28:02.081Z,98708.53
2022-08-20T04:30:29.597Z,98713.53
2022-08-20T04:32:57.704Z,98708.72
2022-08-20T04:35:24.816Z,98705.38
2022-08-20T04:38:01.949Z,98717.72
2022-08-20T04:40:48.338Z,98721.47
2022-08-20T04:43:15.761Z,98725.03
2022-08-20T04:45:42.888Z,98727.31
2022-08-20T04:48:14.743Z,98741.13
2022-08-20T04:50:45.128Z,98752.41
2022-08-20T04:53:14.476Z,98743.63
2022-08-20T04:55:43.173Z,98740.91
2022-08-20T04:58:36.517Z,98743.84
2022-08-20T05:01:09.583Z,98738.00
2022-08-20T05:03:38.308Z,98731.31
2022-08-20T05:06:10.761Z,98737.41
2022-08-20T05:08:41.241Z,98740.53
2022-08-20T05:11:33.635Z,98738.44
2022-08-20T05:13:56.730Z,98738.00
2022-08-20T05:16:24.716Z,98721.72
2022-08-20T05:18:52.818Z,98722.56
2022-08-20T05:21:21.152Z,98736.53
2022-08-20T05:23:49.551Z,98739.69
2022-08-20T05:26:17.318Z,98741.16
2022-08-20T05:28:54.444Z,98744.69
2022-08-20T05:31:31.890Z,98736.75
2022-08-20T05:34:12.525Z,98775.47
2022-08-20T05:36:50.677Z,98764.97
2022-08-20T05:39:22.192Z,98775.25
2022-08-20T05:41:51.373Z,98780.91
2022-08-20T05:44:18.938Z,98754.34
2022-08-20T05:46:47.574Z,98774.16
2022-08-20T05:49:20.025Z,98742.63
2022-08-20T05:51:47.396Z,98777.28
2022-08-20T05:54:15.130Z,98777.06
2022-08-20T05:56:42.347Z,98774.56
2022-08-20T05:59:10.338Z,98763.59
2022-08-20T06:01:39.185Z,98787.16
2022-08-20T06:04:28.176Z,98790.53
2022-08-20T06:07:03.938Z,98755.59
2022-08-20T06:09:32.605Z,98770.03
2022-08-20T06:12:06.294Z,98788.00
2022-08-20T06:14:33.690Z,98781.84
2022-08-20T06:17:19.267Z,98783.06
2022-08-20T06:19:49.206Z,98778.22
2022-08-20T06:22:19.016Z,98786.59
2022-08-20T06:24:54.200Z,98795.69
2022-08-20T06:27:21.642Z,98780.41
2022-08-20T06:29:49.696Z,98814.34
2022-08-20T06:32:17.348Z,98812.88
2022-08-20T06:34:50.233Z,98810.72
2022-08-20T06:37:28.138Z,98800.38
2022-08-20T06:40:10.811Z,98832.53
2022-08-20T06:42:42.437Z,98823.00
2022-08-20T06:45:16.601Z,98829.69
2022-08-20T06:47:45.538Z,98837.31
2022-08-20T06:50:15.453Z,98822.34
2022-08-20T06:52:52.856Z,98832.88
2022-08-20T06:55:21.378Z,98849.94
2022-08-20T06:57:48.576Z,98841.63
2022-08-20T07:00:18.838Z,98836.72
2022-08-20T07:02:47.157Z,98834.09
2022-08-20T07:05:16.300Z,98847.97
2022-08-20T07:07:51.202Z,98852.28
2022-08-20T07:10:20.204Z,98860.94
2022-08-20T07:12:47.578Z,98863.03
2022-08-20T07:15:15.303Z,98866.00
2022-08-20T07:17:42.894Z,98853.06
2022-08-20T07:20:14.319Z,98857.56
2022-08-20T07:22:42.456Z,98868.69
2022-08-20T07:25:12.702Z,98847.03
2022-08-20T07:27:39.563Z,98855.22
2022-08-20T07:30:28.335Z,98868.56
2022-08-20T07:32:55.522Z,98852.94
2022-08-20T07:35:22.222Z,98861.69
2022-08-20T07:37:51.865Z,98848.94
2022-08-20T07:40:25.738Z,98868.97
2022-08-20T07:42:54.801Z,98857.00
2022-08-20T07:45:22.324Z,98863.22
2022-08-20T07:47:49.771Z,98859.78
2022-08-20T07:50:19.721Z,98851.00
2022-08-20T07:52:47.102Z,98875.41
2022-08-20T07:55:16.553Z,98871.84
2022-08-20T07:57:47.191Z,98862.44
2022-08-20T08:00:15.601Z,98807.22
2022-08-20T08:02:42.517Z,98878.78
2022-08-20T08:05:10.099Z,98877.78
2022-08-20T08:07:38.008Z,98876.69
2022-08-20T08:10:09.094Z,98869.78
2022-08-20T08:12:42.442Z,98869.97
2022-08-20T08:15:15.699Z,98879.00
2022-08-20T08:17:45.029Z,98876.78
2022-08-20T08:20:12.570Z,98871.97
2022-08-20T08:22:45.628Z,98892.84
2022-08-20T08:25:15.178Z,98874.81
2022-08-20T08:27:42.040Z,98874.69
2022-08-20T08:30:10.224Z,98893.66
2022-08-20T08:32:58.143Z,98823.13
2022-08-20T08:35:26.086Z,98888.66
2022-08-20T08:37:54.141Z,98892.16
2022-08-20T08:40:23.928Z,98879.50
2022-08-20T08:42:58.348Z,98898.38
2022-08-20T08:45:31.681Z,98900.28
2022-08-20T08:47:59.383Z,98898.25
2022-08-20T08:50:52.988Z,98901.34
2022-08-20T08:53:53.601Z,98892.31
2022-08-20T08:56:23.577Z,98904.44
2022-08-20T08:58:50.355Z,98897.31
2022-08-20T09:01:54.323Z,98905.94
2022-08-20T09:04:09.636Z,98918.88
2022-08-20T09:06:36.924Z,98908.22
2022-08-20T09:09:06.579Z,98926.84
2022-08-20T09:11:47.444Z,98911.00
2022-08-20T09:14:14.268Z,98912.63
2022-08-20T09:16:52.223Z,98875.41
2022-08-20T09:19:20.103Z,98883.63
2022-08-20T09:21:46.900Z,98900.97
2022-08-20T09:24:13.760Z,98912.91
2022-08-20T09:26:40.502Z,98879.38
2022-08-20T09:29:07.354Z,98915.38
2022-08-20T09:31:34.208Z,98901.38
2022-08-20T09:34:01.420Z,98868.13
2022-08-20T09:36:32.417Z,98913.28
2022-08-20T09:39:02.731Z,98914.75
2022-08-20T09:41:29.837Z,98921.69
2022-08-20T09:43:56.580Z,98930.03
2022-08-20T09:46:26.995Z,98933.00
2022-08-20T09:48:54.291Z,98891.16
2022-08-20T09:51:22.042Z,98929.03
2022-08-20T09:53:49.259Z,98906.03
2022-08-20T09:56:17.258Z,98931.78
2022-08-20T09:58:57.999Z,98935.53
2022-08-20T10:01:26.721Z,98922.16
2022-08-20T10:03:53.500Z,98886.56
2022-08-20T10:06:20.808Z,98904.94
2022-08-20T10:08:49.208Z,98893.47
2022-08-20T10:11:18.138Z,98866.25
2022-08-20T10:13:45.375Z,98909.13
2022-08-20T10:16:12.150Z,98903.28
2022-08-20T10:18:39.027Z,98877.56
2022-08-20T10:21:12.962Z,98894.25
2022-08-20T10:23:40.826Z,98881.75
2022-08-20T10:26:12.151Z,98918.50
2022-08-20T10:28:39.589Z,98911.19
2022-08-20T10:31:08.011Z,98895.94
2022-08-20T10:33:35.537Z,98917.28
2022-08-20T10:36:17.584Z,98916.44
2022-08-20T10:38:45.235Z,98907.19
2022-08-20T10:41:12.244Z,98912.25
2022-08-20T10:43:39.067Z,98898.41
2022-08-20T10:46:06.205Z,98881.25
2022-08-20T10:48:33.154Z,98902.38
2022-08-20T10:50:59.979Z,98923.09
2022-08-20T10:53:27.087Z,98915.09
2022-08-20T10:55:56.080Z,98863.84
2022-08-20T10:58:23.117Z,98916.13
2022-08-20T11:00:51.240Z,98909.06
2022-08-20T11:03:18.213Z,98890.63
2022-08-20T11:05:45.331Z,98893.16
2022-08-20T11:08:12.562Z,98902.03
2022-08-20T11:10:40.477Z,98919.34
2022-08-20T11:13:08.641Z,98906.56
2022-08-20T11:15:41.303Z,98887.78
2022-08-20T11:18:08.985Z,98890.72
2022-08-20T11:20:36.041Z,98890.09
2022-08-20T11:23:03.149Z,98869.56
2022-08-20T11:25:30.658Z,98905.06
2022-08-20T11:27:58.585Z,98907.59
2022-08-20T11:30:29.306Z,98883.44
2022-08-20T11:32:57.685Z,98854.78
2022-08-20T11:35:49.426Z,98897.97
2022-08-20T11:37:58.068Z,98898.78
2022-08-20T11:40:27.173Z,98901.03
2022-08-20T11:43:13.609Z,98901.06
2022-08-20T11:45:41.301Z,98899.22
2022-08-20T11:48:08.186Z,98893.53
2022-08-20T11:50:35.260Z,98897.84
2022-08-20T11:53:02.345Z,98899.53
2022-08-20T11:57:56.172Z,98903.34
2022-08-20T12:00:31.937Z,98907.34
2022-08-20T12:03:05.456Z,98911.16
2022-08-20T12:05:33.801Z,98917.78
2022-08-20T12:08:02.316Z,98922.59
2022-08-20T12:10:30.352Z,98913.53
2022-08-20T12:12:57.520Z,98908.97
2022-08-20T12:15:27.002Z,98900.41
2022-08-20T12:17:54.724Z,98935.50
2022-08-20T12:20:23.309Z,98930.28
2022-08-20T12:22:50.839Z,98911.47
2022-08-20T12:25:17.971Z,98916.19
2022-08-20T12:27:46.854Z,98914.72
2022-08-20T12:30:20.049Z,98916.50
2022-08-20T12:32:47.527Z,98910.06
2022-08-20T12:35:17.124Z,98916.03
2022-08-20T12:37:44.098Z,98917.25
2022-08-20T12:40:22.734Z,98905.09
2022-08-20T12:42:46.303Z,98912.00
2022-08-20T12:45:13.141Z,98913.00
2022-08-20T12:47:44.857Z,98922.25
2022-08-20T12:50:18.346Z,98918.41
2022-08-20T12:52:45.949Z,98908.84
2022-08-20T12:55:16.232Z,98906.13
2022-08-20T12:57:51.780Z,98908.13
2022-08-20T13:00:22.025Z,98912.19
2022-08-20T13:02:51.121Z,98891.03
2022-08-20T13:05:18.159Z,98887.91
2022-08-20T13:07:47.051Z,98884.75
2022-08-20T13:10:21.998Z,98896.59
2022-08-20T13:12:49.510Z,98878.38
2022-08-20T13:15:17.001Z,98896.66
2022-08-20T13:17:44.255Z,98905.25
2022-08-20T13:22:36.840Z,98881.25
2022-08-20T13:25:05.087Z,98908.78
2022-08-20T13:27:32.588Z,98908.78
2022-08-20T13:29:59.889Z,98902.56
2022-08-20T13:32:26.986Z,98852.16
2022-08-20T13:34:53.858Z,98902.63
2022-08-20T13:37:26.531Z,98899.28
2022-08-20T13:39:55.238Z,98892.81
2022-08-20T13:42:22.801Z,98883.44
2022-08-20T13:44:49.897Z,98883.84
2022-08-20T13:47:29.179Z,98872.97
2022-08-20T13:50:03.741Z,98874.66
2022-08-20T13:52:32.011Z,98880.44
2022-08-20T13:54:59.021Z,98854.22
2022-08-20T13:57:26.522Z,98865.75
2022-08-20T13:59:57.168Z,98879.44
2022-08-20T14:02:24.951Z,98867.75
2022-08-20T14:04:52.772Z,98868.38
2022-08-20T14:07:30.164Z,98862.09
2022-08-20T14:10:00.960Z,98849.94
2022-08-20T14:12:28.514Z,98856.81
2022-08-20T14:14:57.891Z,98844.28
2022-08-20T14:17:30.869Z,98834.72
2022-08-20T14:20:04.462Z,98840.19
2022-08-20T14:22:32.843Z,98847.63
2022-08-20T14:25:04.118Z,98840.63
2022-08-20T14:27:33.584Z,98836.84
2022-08-20T14:30:01.387Z,98843.94
2022-08-20T14:32:28.911Z,98846.59
2022-08-20T14:34:58.236Z,98849.44
2022-08-20T14:37:27.933Z,98844.69
2022-08-20T14:39:57.078Z,98863.09
2022-08-20T14:44:58.847Z,98849.44
2022-08-20T14:47:31.723Z,98861.56
2022-08-20T14:50:05.446Z,98850.41
2022-08-20T14:52:36.544Z,98856.84
2022-08-20T14:55:05.654Z,98865.41
2022-08-20T14:57:33.310Z,98864.16
2022-08-20T15:00:02.015Z,98850.03
2022-08-20T15:02:28.830Z,98849.88
2022-08-20T15:04:55.945Z,98856.13
2022-08-20T15:07:24.528Z,98857.09
2022-08-20T15:09:51.984Z,98814.09
2022-08-20T15:12:19.060Z,98833.72
2022-08-20T15:14:47.986Z,98814.47
2022-08-20T15:17:25.573Z,98781.88
2022-08-20T15:19:52.923Z,98800.25
2022-08-20T15:22:20.628Z,98813.19
2022-08-20T15:24:47.965Z,98853.22
2022-08-20T15:27:22.820Z,98848.59
2022-08-20T15:29:51.372Z,98854.81
2022-08-20T15:32:21.851Z,98788.34
2022-08-20T15:34:49.682Z,98810.44
2022-08-20T15:37:22.725Z,98779.75
2022-08-20T15:39:51.177Z,98784.50
2022-08-20T15:42:19.894Z,98813.41
2022-08-20T15:44:49.523Z,98851.97
2022-08-20T15:49:49.149Z,98797.69
2022-08-20T15:52:17.605Z,98823.50
2022-08-20T15:54:45.964Z,98831.91
2022-08-20T15:57:41.273Z,98816.31
2022-08-20T16:00:20.307Z,98875.22
2022-08-20T16:03:06.411Z,98872.09
2022-08-20T16:05:42.133Z,98815.66
2022-08-20T16:08:18.246Z,98850.28
2022-08-20T16:13:44.126Z,98875.81
2022-08-20T16:16:33.250Z,98874.22
2022-08-20T16:19:00.709Z,98892.34
2022-08-20T16:21:34.839Z,98889.59
2022-08-20T16:24:02.127Z,98890.44
2022-08-20T16:26:51.175Z,98898.56
2022-08-20T16:29:25.030Z,98896.69
2022-08-20T16:32:03.469Z,98900.59
2022-08-20T16:34:46.017Z,98905.69
2022-08-20T16:37:30.027Z,98881.25
2022-08-20T16:40:05.811Z,98903.88
2022-08-20T16:42:39.297Z,98911.88
2022-08-20T16:45:12.271Z,98916.28
2022-08-20T16:47:41.269Z,98911.13
2022-08-20T16:50:20.188Z,98914.25
2022-08-20T16:52:49.504Z,98907.59
2022-08-20T16:55:16.432Z,98914.00
2022-08-20T16:57:44.660Z,98903.34
2022-08-20T17:00:16.436Z,98922.38
2022-08-20T17:02:56.915Z,98923.19
2022-08-20T17:05:29.943Z,98927.22
2022-08-20T17:08:02.458Z,98930.19
2022-08-20T17:10:35.864Z,98940.94
2022-08-20T17:13:21.220Z,98921.06
2022-08-20T17:16:06.891Z,98942.41
2022-08-20T17:18:37.192Z,98938.44
2022-08-20T17:21:12.027Z,98930.44
2022-08-20T17:23:55.521Z,98934.84
2022-08-20T17:26:36.798Z,98925.69
2022-08-20T17:29:20.840Z,98870.44
2022-08-20T17:31:54.114Z,98883.84
2022-08-20T17:34:24.630Z,98866.69
2022-08-20T17:36:57.309Z,98944.09
2022-08-20T17:39:29.941Z,98879.66
2022-08-20T17:42:14.488Z,98886.50
2022-08-20T17:44:46.195Z,98881.06
2022-08-20T17:47:17.134Z,98890.72
2022-08-20T17:50:02.533Z,98901.44
2022-08-20T17:52:49.188Z,98891.31
2022-08-20T17:55:17.477Z,98917.97
2022-08-20T17:57:52.669Z,98958.78
2022-08-20T18:00:25.884Z,98937.84
2022-08-20T18:03:14.144Z,98876.84
2022-08-20T18:05:44.995Z,98888.16
2022-08-20T18:08:34.080Z,98965.69
2022-08-20T18:11:35.178Z,98934.47
2022-08-20T18:14:16.678Z,98970.47
2022-08-20T18:17:00.966Z,98975.28
2022-08-20T18:20:25.299Z,98981.13
2022-08-20T18:23:00.205Z,98939.94
2022-08-20T18:25:53.542Z,98909.50
2022-08-20T18:29:04.035Z,98912.00
2022-08-20T18:31:41.207Z,98988.91
2022-08-20T18:34:17.276Z,98951.13
2022-08-20T18:39:48.998Z,98939.63
2022-08-20T18:42:23.722Z,98994.53
2022-08-20T18:44:58.212Z,98969.34
2022-08-20T18:47:45.210Z,98926.16
2022-08-20T18:50:21.026Z,98999.34
2022-08-20T18:53:12.352Z,98961.56
2022-08-20T18:55:47.987Z,98936.19
2022-08-20T18:58:29.753Z,98960.06
2022-08-20T19:00:57.283Z,98980.56
2022-08-20T19:03:31.967Z,99002.53
2022-08-20T19:06:40.122Z,99005.91
2022-08-20T19:09:14.907Z,99004.66
2022-08-20T19:11:57.186Z,98980.72
2022-08-20T19:14:27.394Z,99005.25
2022-08-20T19:17:11.628Z,99005.41
2022-08-20T19:19:39.374Z,98994.91
2022-08-20T19:22:06.904Z,99004.13
2022-08-20T19:24:37.190Z,99009.56
2022-08-20T19:27:09.602Z,98998.09
2022-08-20T19:29:46.149Z,99003.28
2022-08-20T19:32:30.297Z,99011.03
2022-08-20T19:35:05.995Z,99005.38
2022-08-20T19:37:50.677Z,99005.75
2022-08-20T19:40:29.685Z,99005.81
2022-08-20T19:43:00.022Z,98992.03
2022-08-20T19:45:26.866Z,99006.84
2022-08-20T19:48:12.496Z,99001.41
2022-08-20T19:51:03.047Z,98992.59
2022-08-20T19:53:32.637Z,98991.09
2022-08-20T19:56:05.031Z,98997.44
2022-08-20T19:58:33.769Z,98973.03
2022-08-20T20:01:02.771Z,98973.31
2022-08-20T20:03:38.017Z,98991.59
2022-08-20T20:06:16.071Z,98993.69
2022-08-20T20:09:01.370Z,98992.22
2022-08-20T20:11:32.240Z,98995.13
2022-08-20T20:14:06.488Z,98961.34
2022-08-20T20:16:34.346Z,98975.16
2022-08-20T20:19:25.192Z,98987.94
2022-08-20T20:22:19.312Z,98995.53
2022-08-20T20:24:59.376Z,98996.56
2022-08-20T20:27:27.847Z,98993.47
2022-08-20T20:30:11.075Z,98993.03
2022-08-20T20:32:48.286Z,98975.19
2022-08-20T20:35:36.746Z,98974.56
2022-08-20T20:38:24.516Z,98981.03
2022-08-20T20:40:55.315Z,98996.69
2022-08-20T20:43:27.833Z,98992.97
2022-08-20T20:46:06.515Z,98989.78
2022-08-20T20:48:43.983Z,98997.53
2022-08-20T20:51:22.305Z,98987.50
2022-08-20T20:53:54.668Z,98958.47
2022-08-20T20:56:34.583Z,98977.84
2022-08-20T20:59:06.617Z,98971.66
2022-08-20T21:01:49.578Z,99007.97
2022-08-20T21:04:22.182Z,98988.25
2022-08-20T21:06:50.275Z,98982.13
2022-08-20T21:09:17.255Z,99008.16
2022-08-20T21:11:44.712Z,99016.50
2022-08-20T21:14:11.563Z,99011.06
2022-08-20T21:16:38.411Z,98990.88
2022-08-20T21:19:08.123Z,99006.69
2022-08-20T21:21:34.795Z,99013.19
2022-08-20T21:24:01.613Z,99002.22
2022-08-20T21:26:29.112Z,99021.22
2022-08-20T21:28:56.121Z,99009.97
2022-08-20T21:31:30.236Z,99005.53
2022-08-20T21:33:56.923Z,99007.47
2022-08-20T21:36:23.631Z,99002.22
2022-08-20T21:38:51.307Z,99010.13
2022-08-20T21:41:18.103Z,99013.44
2022-08-20T21:43:45.104Z,98979.91
2022-08-20T21:46:16.272Z,99008.94
2022-08-20T21:48:51.663Z,99004.16
2022-08-20T21:51:18.522Z,98979.59
2022-08-20T21:53:45.692Z,99004.16
2022-08-20T21:56:12.633Z,99005.81
2022-08-20T21:58:39.765Z,99012.53
2022-08-20T22:01:06.892Z,99011.22
2022-08-20T22:03:38.870Z,99016.44
2022-08-20T22:06:11.776Z,99011.00
2022-08-20T22:08:39.260Z,99010.72
2022-08-20T22:11:07.963Z,98979.81
2022-08-20T22:13:35.219Z,99002.22
2022-08-20T22:16:05.104Z,99007.47
2022-08-20T22:18:32.116Z,99010.16
2022-08-20T22:20:59.158Z,99000.16
2022-08-20T22:23:26.333Z,99002.47
2022-08-20T22:25:53.312Z,98998.63
2022-08-20T22:28:20.956Z,99004.88
2022-08-20T22:30:48.213Z,98999.72
2022-08-20T22:33:20.092Z,98990.28
2022-08-20T22:35:50.724Z,98954.00
2022-08-20T22:38:17.609Z,98944.16
2022-08-20T22:40:44.934Z,98989.56
2022-08-20T22:43:12.535Z,98978.06
2022-08-20T22:45:40.802Z,98989.69
2022-08-20T22:48:08.813Z,98985.69
2022-08-20T22:50:37.853Z,98991.75
2022-08-20T22:53:06.467Z,98954.53
2022-08-20T22:55:33.304Z,98986.06
2022-08-20T22:58:00.152Z,98986.59
2022-08-20T23:03:41.622Z,98966.00
2022-08-20T23:06:09.732Z,98940.22
2022-08-20T23:08:37.665Z,98975.91
2022-08-20T23:11:04.907Z,98974.44
2022-08-20T23:13:31.645Z,98964.41
2022-08-20T23:15:58.561Z,98958.72
2022-08-20T23:18:25.311Z,98959.75
2022-08-20T23:20:56.348Z,98961.63
2022-08-20T23:23:25.397Z,98961.63
2022-08-20T23:25:52.969Z,98959.97
2022-08-20T23:28:22.739Z,98955.81
2022-08-20T23:30:49.745Z,98955.75
2022-08-20T23:33:16.701Z,98956.41
2022-08-20T23:35:44.512Z,98914.41
2022-08-20T23:38:11.518Z,98939.41
2022-08-20T23:40:38.422Z,98945.47
2022-08-20T23:43:05.619Z,98944.81
2022-08-20T23:45:33.587Z,98955.03
2022-08-20T23:48:01.405Z,98952.22
2022-08-20T23:50:30.255Z,98922.41
2022-08-20T23:52:57.856Z,98911.09
2022-08-20T23:55:25.281Z,98937.94
2022-08-20T23:57:52.516Z,98941.69
